sensor_id;sensor_type;location;lat;lon;timestamp;temperature;humidity
15241;DHT22;7723;52.170;9.978;2024-01-30T00:01:28;6.10;99.90
15241;DHT22;7723;52.170;9.978;2024-01-30T00:03:55;6.00;99.90
15241;DHT22;7723;52.170;9.978;2024-01-30T00:06:23;5.80;99.90
15241;DHT22;7723;52.170;9.978;2024-01-30T00:08:51;5.70;99.90
15241;DHT22;7723;52.170;9.978;2024-01-30T00:11:19;5.50;99.90
15241;DHT22;7723;52.170;9.978;2024-01-30T00:13:46;5.50;99.90
15241;DHT22;7723;52.170;9.978;2024-01-30T00:16:20;5.40;99.90
15241;DHT22;7723;52.170;9.978;2024-01-30T00:18:47;5.30;99.90
15241;DHT22;7723;52.170;9.978;2024-01-30T00:21:13;5.30;99.90
15241;DHT22;7723;52.170;9.978;2024-01-30T00:23:42;5.20;99.90
15241;DHT22;7723;52.170;9.978;2024-01-30T00:26:09;5.10;99.90
15241;DHT22;7723;52.170;9.978;2024-01-30T00:28:37;5.00;99.90
15241;DHT22;7723;52.170;9.978;2024-01-30T00:31:04;5.00;99.90
15241;DHT22;7723;52.170;9.978;2024-01-30T00:33:32;5.00;99.90
15241;DHT22;7723;52.170;9.978;2024-01-30T00:35:59;5.10;99.90
15241;DHT22;7723;52.170;9.978;2024-01-30T00:38:26;5.00;99.90
15241;DHT22;7723;52.170;9.978;2024-01-30T00:40:54;5.00;99.90
15241;DHT22;7723;52.170;9.978;2024-01-30T00:43:21;5.00;99.90
15241;DHT22;7723;52.170;9.978;2024-01-30T00:45:50;5.00;99.90
15241;DHT22;7723;52.170;9.978;2024-01-30T00:48:17;5.00;99.90
15241;DHT22;7723;52.170;9.978;2024-01-30T00:50:45;5.00;99.90
15241;DHT22;7723;52.170;9.978;2024-01-30T00:53:12;5.10;99.90
15241;DHT22;7723;52.170;9.978;2024-01-30T00:55:39;5.10;99.90
15241;DHT22;7723;52.170;9.978;2024-01-30T00:58:07;5.20;99.90
15241;DHT22;7723;52.170;9.978;2024-01-30T01:00:34;5.40;99.90
15241;DHT22;7723;52.170;9.978;2024-01-30T01:03:02;5.40;99.90
15241;DHT22;7723;52.170;9.978;2024-01-30T01:05:29;5.50;99.90
15241;DHT22;7723;52.170;9.978;2024-01-30T01:07:56;5.50;99.90
15241;DHT22;7723;52.170;9.978;2024-01-30T01:10:23;5.60;99.90
15241;DHT22;7723;52.170;9.978;2024-01-30T01:12:50;5.70;99.90
15241;DHT22;7723;52.170;9.978;2024-01-30T01:15:19;5.70;99.90
15241;DHT22;7723;52.170;9.978;2024-01-30T01:17:46;5.60;99.90
15241;DHT22;7723;52.170;9.978;2024-01-30T01:20:14;5.60;99.90
15241;DHT22;7723;52.170;9.978;2024-01-30T01:22:41;5.60;99.90
15241;DHT22;7723;52.170;9.978;2024-01-30T01:25:09;5.70;99.90
15241;DHT22;7723;52.170;9.978;2024-01-30T01:27:36;5.70;99.90
15241;DHT22;7723;52.170;9.978;2024-01-30T01:30:08;5.70;99.90
15241;DHT22;7723;52.170;9.978;2024-01-30T01:32:37;5.70;99.90
15241;DHT22;7723;52.170;9.978;2024-01-30T01:35:10;5.70;99.90
15241;DHT22;7723;52.170;9.978;2024-01-30T01:37:37;5.70;99.90
15241;DHT22;7723;52.170;9.978;2024-01-30T01:40:06;5.80;99.90
15241;DHT22;7723;52.170;9.978;2024-01-30T01:42:33;5.80;99.90
15241;DHT22;7723;52.170;9.978;2024-01-30T01:45:01;5.80;99.90
15241;DHT22;7723;52.170;9.978;2024-01-30T01:47:28;5.80;99.90
15241;DHT22;7723;52.170;9.978;2024-01-30T01:49:57;5.90;99.90
15241;DHT22;7723;52.170;9.978;2024-01-30T01:52:24;6.00;99.90
15241;DHT22;7723;52.170;9.978;2024-01-30T01:54:51;6.00;99.90
15241;DHT22;7723;52.170;9.978;2024-01-30T01:57:18;6.20;99.90
15241;DHT22;7723;52.170;9.978;2024-01-30T01:59:45;6.10;99.90
15241;DHT22;7723;52.170;9.978;2024-01-30T02:02:15;6.10;99.90
15241;DHT22;7723;52.170;9.978;2024-01-30T02:04:44;6.10;99.90
15241;DHT22;7723;52.170;9.978;2024-01-30T02:07:13;6.20;99.90
15241;DHT22;7723;52.170;9.978;2024-01-30T02:09:40;6.10;99.90
15241;DHT22;7723;52.170;9.978;2024-01-30T02:12:07;6.10;99.90
15241;DHT22;7723;52.170;9.978;2024-01-30T02:14:44;6.10;99.90
15241;DHT22;7723;52.170;9.978;2024-01-30T02:17:11;6.00;99.90
15241;DHT22;7723;52.170;9.978;2024-01-30T02:19:39;6.00;99.90
15241;DHT22;7723;52.170;9.978;2024-01-30T02:22:07;6.00;99.90
15241;DHT22;7723;52.170;9.978;2024-01-30T02:24:35;5.90;99.90
15241;DHT22;7723;52.170;9.978;2024-01-30T02:27:02;6.00;99.90
15241;DHT22;7723;52.170;9.978;2024-01-30T02:29:29;6.00;99.90
15241;DHT22;7723;52.170;9.978;2024-01-30T02:31:56;5.90;99.90
15241;DHT22;7723;52.170;9.978;2024-01-30T02:34:24;6.00;99.90
15241;DHT22;7723;52.170;9.978;2024-01-30T02:36:51;5.90;99.90
15241;DHT22;7723;52.170;9.978;2024-01-30T02:39:20;5.90;99.90
15241;DHT22;7723;52.170;9.978;2024-01-30T02:41:47;5.80;99.90
15241;DHT22;7723;52.170;9.978;2024-01-30T02:44:14;5.80;99.90
15241;DHT22;7723;52.170;9.978;2024-01-30T02:46:41;5.80;99.90
15241;DHT22;7723;52.170;9.978;2024-01-30T02:49:08;5.70;99.90
15241;DHT22;7723;52.170;9.978;2024-01-30T02:51:35;5.70;99.90
15241;DHT22;7723;52.170;9.978;2024-01-30T02:54:02;5.70;99.90
15241;DHT22;7723;52.170;9.978;2024-01-30T02:56:31;5.70;99.90
15241;DHT22;7723;52.170;9.978;2024-01-30T02:58:58;5.70;99.90
15241;DHT22;7723;52.170;9.978;2024-01-30T03:01:25;5.80;99.90
15241;DHT22;7723;52.170;9.978;2024-01-30T03:03:52;5.80;99.90
15241;DHT22;7723;52.170;9.978;2024-01-30T03:06:19;5.80;99.90
15241;DHT22;7723;52.170;9.978;2024-01-30T03:08:48;5.70;99.90
15241;DHT22;7723;52.170;9.978;2024-01-30T03:11:15;5.70;99.90
15241;DHT22;7723;52.170;9.978;2024-01-30T03:13:44;5.70;99.90
15241;DHT22;7723;52.170;9.978;2024-01-30T03:16:11;5.70;99.90
15241;DHT22;7723;52.170;9.978;2024-01-30T03:18:38;5.70;99.90
15241;DHT22;7723;52.170;9.978;2024-01-30T03:21:05;5.80;99.90
15241;DHT22;7723;52.170;9.978;2024-01-30T03:23:33;5.80;99.90
15241;DHT22;7723;52.170;9.978;2024-01-30T03:26:00;5.80;99.90
15241;DHT22;7723;52.170;9.978;2024-01-30T03:28:27;5.80;99.90
15241;DHT22;7723;52.170;9.978;2024-01-30T03:30:55;5.90;99.90
15241;DHT22;7723;52.170;9.978;2024-01-30T03:33:22;6.00;99.90
15241;DHT22;7723;52.170;9.978;2024-01-30T03:35:49;5.90;99.90
15241;DHT22;7723;52.170;9.978;2024-01-30T03:38:16;6.00;99.90
15241;DHT22;7723;52.170;9.978;2024-01-30T03:40:43;6.10;99.90
15241;DHT22;7723;52.170;9.978;2024-01-30T03:43:11;6.20;99.90
15241;DHT22;7723;52.170;9.978;2024-01-30T03:45:38;6.20;99.90
15241;DHT22;7723;52.170;9.978;2024-01-30T03:48:07;6.30;99.90
15241;DHT22;7723;52.170;9.978;2024-01-30T03:50:34;6.20;99.90
15241;DHT22;7723;52.170;9.978;2024-01-30T03:53:01;6.20;99.90
15241;DHT22;7723;52.170;9.978;2024-01-30T03:55:28;6.30;99.90
15241;DHT22;7723;52.170;9.978;2024-01-30T03:57:55;6.30;99.90
15241;DHT22;7723;52.170;9.978;2024-01-30T04:00:22;6.30;99.90
15241;DHT22;7723;52.170;9.978;2024-01-30T04:02:49;6.30;99.90
15241;DHT22;7723;52.170;9.978;2024-01-30T04:05:19;6.40;99.90
15241;DHT22;7723;52.170;9.978;2024-01-30T04:07:46;6.40;99.90
15241;DHT22;7723;52.170;9.978;2024-01-30T04:10:13;6.40;99.90
15241;DHT22;7723;52.170;9.978;2024-01-30T04:12:40;6.40;99.90
15241;DHT22;7723;52.170;9.978;2024-01-30T04:15:08;6.30;99.90
15241;DHT22;7723;52.170;9.978;2024-01-30T04:17:35;6.30;99.90
15241;DHT22;7723;52.170;9.978;2024-01-30T04:20:03;6.30;99.90
15241;DHT22;7723;52.170;9.978;2024-01-30T04:22:31;6.30;99.90
15241;DHT22;7723;52.170;9.978;2024-01-30T04:24:58;6.20;99.90
15241;DHT22;7723;52.170;9.978;2024-01-30T04:27:25;6.20;99.90
15241;DHT22;7723;52.170;9.978;2024-01-30T04:29:52;6.10;99.90
15241;DHT22;7723;52.170;9.978;2024-01-30T04:32:19;6.10;99.90
15241;DHT22;7723;52.170;9.978;2024-01-30T04:34:46;6.10;99.90
15241;DHT22;7723;52.170;9.978;2024-01-30T04:37:14;6.00;99.90
15241;DHT22;7723;52.170;9.978;2024-01-30T04:39:42;6.00;99.90
15241;DHT22;7723;52.170;9.978;2024-01-30T04:42:09;6.00;99.90
15241;DHT22;7723;52.170;9.978;2024-01-30T04:44:36;5.90;99.90
15241;DHT22;7723;52.170;9.978;2024-01-30T04:47:04;5.80;99.90
15241;DHT22;7723;52.170;9.978;2024-01-30T04:49:31;5.60;99.90
15241;DHT22;7723;52.170;9.978;2024-01-30T04:51:58;5.50;99.90
15241;DHT22;7723;52.170;9.978;2024-01-30T04:54:26;5.40;99.90
15241;DHT22;7723;52.170;9.978;2024-01-30T04:56:54;5.30;99.90
15241;DHT22;7723;52.170;9.978;2024-01-30T04:59:21;5.20;99.90
15241;DHT22;7723;52.170;9.978;2024-01-30T05:01:48;5.10;99.90
15241;DHT22;7723;52.170;9.978;2024-01-30T05:04:15;5.00;99.90
15241;DHT22;7723;52.170;9.978;2024-01-30T05:06:43;4.90;99.90
15241;DHT22;7723;52.170;9.978;2024-01-30T05:09:10;4.80;99.90
15241;DHT22;7723;52.170;9.978;2024-01-30T05:11:37;4.70;99.90
15241;DHT22;7723;52.170;9.978;2024-01-30T05:14:06;4.70;99.90
15241;DHT22;7723;52.170;9.978;2024-01-30T05:16:34;4.60;99.90
15241;DHT22;7723;52.170;9.978;2024-01-30T05:19:01;4.60;99.90
15241;DHT22;7723;52.170;9.978;2024-01-30T05:21:28;4.50;99.90
15241;DHT22;7723;52.170;9.978;2024-01-30T05:23:55;4.50;99.90
15241;DHT22;7723;52.170;9.978;2024-01-30T05:26:22;4.50;99.90
15241;DHT22;7723;52.170;9.978;2024-01-30T05:28:49;4.40;99.90
15241;DHT22;7723;52.170;9.978;2024-01-30T05:31:18;4.40;99.90
15241;DHT22;7723;52.170;9.978;2024-01-30T05:33:46;4.30;99.90
15241;DHT22;7723;52.170;9.978;2024-01-30T05:36:13;4.30;99.90
15241;DHT22;7723;52.170;9.978;2024-01-30T05:38:40;4.20;99.90
15241;DHT22;7723;52.170;9.978;2024-01-30T05:41:08;4.20;99.90
15241;DHT22;7723;52.170;9.978;2024-01-30T05:43:36;4.20;99.90
15241;DHT22;7723;52.170;9.978;2024-01-30T05:46:03;4.20;99.90
15241;DHT22;7723;52.170;9.978;2024-01-30T05:48:32;4.20;99.90
15241;DHT22;7723;52.170;9.978;2024-01-30T05:51:01;4.10;99.90
15241;DHT22;7723;52.170;9.978;2024-01-30T05:53:29;4.00;99.90
15241;DHT22;7723;52.170;9.978;2024-01-30T05:55:56;4.00;99.90
15241;DHT22;7723;52.170;9.978;2024-01-30T05:58:23;3.90;99.90
15241;DHT22;7723;52.170;9.978;2024-01-30T06:00:50;3.90;99.90
15241;DHT22;7723;52.170;9.978;2024-01-30T06:03:18;3.80;99.90
15241;DHT22;7723;52.170;9.978;2024-01-30T06:05:46;3.70;99.90
15241;DHT22;7723;52.170;9.978;2024-01-30T06:08:13;3.70;99.90
15241;DHT22;7723;52.170;9.978;2024-01-30T06:10:40;3.70;99.90
15241;DHT22;7723;52.170;9.978;2024-01-30T06:13:07;3.60;99.90
15241;DHT22;7723;52.170;9.978;2024-01-30T06:15:34;3.60;99.90
15241;DHT22;7723;52.170;9.978;2024-01-30T06:18:01;3.50;99.90
15241;DHT22;7723;52.170;9.978;2024-01-30T06:20:29;3.50;99.90
15241;DHT22;7723;52.170;9.978;2024-01-30T06:22:57;3.60;99.90
15241;DHT22;7723;52.170;9.978;2024-01-30T06:25:24;3.60;99.90
15241;DHT22;7723;52.170;9.978;2024-01-30T06:27:51;3.60;99.90
15241;DHT22;7723;52.170;9.978;2024-01-30T06:30:18;3.50;99.90
15241;DHT22;7723;52.170;9.978;2024-01-30T06:32:45;3.50;99.90
15241;DHT22;7723;52.170;9.978;2024-01-30T06:35:13;3.50;99.90
15241;DHT22;7723;52.170;9.978;2024-01-30T06:37:40;3.60;99.90
15241;DHT22;7723;52.170;9.978;2024-01-30T06:40:09;3.60;99.90
15241;DHT22;7723;52.170;9.978;2024-01-30T06:42:36;3.60;99.90
15241;DHT22;7723;52.170;9.978;2024-01-30T06:45:04;3.50;99.90
15241;DHT22;7723;52.170;9.978;2024-01-30T06:47:31;3.50;99.90
15241;DHT22;7723;52.170;9.978;2024-01-30T06:49:59;3.40;99.90
15241;DHT22;7723;52.170;9.978;2024-01-30T06:52:27;3.30;99.90
15241;DHT22;7723;52.170;9.978;2024-01-30T06:54:54;3.30;99.90
15241;DHT22;7723;52.170;9.978;2024-01-30T06:57:23;3.20;99.90
15241;DHT22;7723;52.170;9.978;2024-01-30T06:59:50;3.30;99.90
15241;DHT22;7723;52.170;9.978;2024-01-30T07:02:17;3.60;99.90
15241;DHT22;7723;52.170;9.978;2024-01-30T07:04:44;3.80;99.90
15241;DHT22;7723;52.170;9.978;2024-01-30T07:07:11;3.90;99.90
15241;DHT22;7723;52.170;9.978;2024-01-30T07:09:39;4.00;99.90
15241;DHT22;7723;52.170;9.978;2024-01-30T07:12:06;3.90;99.90
15241;DHT22;7723;52.170;9.978;2024-01-30T07:14:35;3.90;99.90
15241;DHT22;7723;52.170;9.978;2024-01-30T07:17:03;4.00;99.90
15241;DHT22;7723;52.170;9.978;2024-01-30T07:19:31;4.00;99.90
15241;DHT22;7723;52.170;9.978;2024-01-30T07:22:00;3.90;99.90
15241;DHT22;7723;52.170;9.978;2024-01-30T07:24:27;4.10;99.90
15241;DHT22;7723;52.170;9.978;2024-01-30T07:26:54;4.10;99.90
15241;DHT22;7723;52.170;9.978;2024-01-30T07:29:21;4.20;99.90
15241;DHT22;7723;52.170;9.978;2024-01-30T07:31:50;4.10;99.90
15241;DHT22;7723;52.170;9.978;2024-01-30T07:34:17;4.20;99.90
15241;DHT22;7723;52.170;9.978;2024-01-30T07:36:44;4.30;99.90
15241;DHT22;7723;52.170;9.978;2024-01-30T07:39:12;4.40;99.90
15241;DHT22;7723;52.170;9.978;2024-01-30T07:41:39;4.50;99.90
15241;DHT22;7723;52.170;9.978;2024-01-30T07:44:06;4.70;99.90
15241;DHT22;7723;52.170;9.978;2024-01-30T07:46:33;4.80;99.90
15241;DHT22;7723;52.170;9.978;2024-01-30T07:49:02;5.10;99.90
15241;DHT22;7723;52.170;9.978;2024-01-30T07:51:29;5.20;99.90
15241;DHT22;7723;52.170;9.978;2024-01-30T07:53:58;5.20;99.90
15241;DHT22;7723;52.170;9.978;2024-01-30T07:56:25;5.30;99.90
15241;DHT22;7723;52.170;9.978;2024-01-30T07:58:52;5.40;99.90
15241;DHT22;7723;52.170;9.978;2024-01-30T08:01:20;5.40;99.90
15241;DHT22;7723;52.170;9.978;2024-01-30T08:03:47;5.50;99.90
15241;DHT22;7723;52.170;9.978;2024-01-30T08:06:16;5.70;99.90
15241;DHT22;7723;52.170;9.978;2024-01-30T08:08:43;5.80;99.90
15241;DHT22;7723;52.170;9.978;2024-01-30T08:11:10;5.90;99.90
15241;DHT22;7723;52.170;9.978;2024-01-30T08:13:38;5.90;99.90
15241;DHT22;7723;52.170;9.978;2024-01-30T08:16:05;6.00;99.90
15241;DHT22;7723;52.170;9.978;2024-01-30T08:18:32;6.00;99.90
15241;DHT22;7723;52.170;9.978;2024-01-30T08:21:00;6.00;99.90
15241;DHT22;7723;52.170;9.978;2024-01-30T08:23:28;6.10;99.90
15241;DHT22;7723;52.170;9.978;2024-01-30T08:25:55;6.20;99.90
15241;DHT22;7723;52.170;9.978;2024-01-30T08:28:22;6.20;99.90
15241;DHT22;7723;52.170;9.978;2024-01-30T08:30:49;6.40;99.90
15241;DHT22;7723;52.170;9.978;2024-01-30T08:33:16;6.50;99.90
15241;DHT22;7723;52.170;9.978;2024-01-30T08:35:43;6.70;99.90
15241;DHT22;7723;52.170;9.978;2024-01-30T08:38:10;6.80;99.90
15241;DHT22;7723;52.170;9.978;2024-01-30T08:40:40;6.90;99.90
15241;DHT22;7723;52.170;9.978;2024-01-30T08:43:07;7.00;99.90
15241;DHT22;7723;52.170;9.978;2024-01-30T08:45:35;7.00;99.90
15241;DHT22;7723;52.170;9.978;2024-01-30T08:48:03;7.10;99.90
15241;DHT22;7723;52.170;9.978;2024-01-30T08:50:30;7.10;99.90
15241;DHT22;7723;52.170;9.978;2024-01-30T08:52:57;7.10;99.90
15241;DHT22;7723;52.170;9.978;2024-01-30T08:55:25;7.20;99.90
15241;DHT22;7723;52.170;9.978;2024-01-30T08:57:53;7.20;99.90
15241;DHT22;7723;52.170;9.978;2024-01-30T09:00:20;7.30;99.90
15241;DHT22;7723;52.170;9.978;2024-01-30T09:02:48;7.30;99.90
15241;DHT22;7723;52.170;9.978;2024-01-30T09:05:15;7.40;99.90
15241;DHT22;7723;52.170;9.978;2024-01-30T09:07:42;7.60;99.90
15241;DHT22;7723;52.170;9.978;2024-01-30T09:10:10;7.60;99.90
15241;DHT22;7723;52.170;9.978;2024-01-30T09:12:37;7.80;99.90
15241;DHT22;7723;52.170;9.978;2024-01-30T09:15:06;7.80;99.90
15241;DHT22;7723;52.170;9.978;2024-01-30T09:17:33;7.90;99.90
15241;DHT22;7723;52.170;9.978;2024-01-30T09:20:01;8.10;99.90
15241;DHT22;7723;52.170;9.978;2024-01-30T09:22:28;8.10;99.90
15241;DHT22;7723;52.170;9.978;2024-01-30T09:24:55;8.20;3.80
15241;DHT22;7723;52.170;9.978;2024-01-30T09:27:22;8.30;1.00
15241;DHT22;7723;52.170;9.978;2024-01-30T09:29:49;8.30;1.00
15241;DHT22;7723;52.170;9.978;2024-01-30T09:32:17;8.30;1.00
15241;DHT22;7723;52.170;9.978;2024-01-30T09:34:45;8.30;1.00
15241;DHT22;7723;52.170;9.978;2024-01-30T09:37:12;8.40;1.00
15241;DHT22;7723;52.170;9.978;2024-01-30T09:39:41;8.30;1.00
15241;DHT22;7723;52.170;9.978;2024-01-30T09:42:14;8.30;1.00
15241;DHT22;7723;52.170;9.978;2024-01-30T09:44:45;8.30;1.00
15241;DHT22;7723;52.170;9.978;2024-01-30T09:47:17;8.30;99.90
15241;DHT22;7723;52.170;9.978;2024-01-30T09:49:44;8.40;99.90
15241;DHT22;7723;52.170;9.978;2024-01-30T09:52:11;8.50;99.90
15241;DHT22;7723;52.170;9.978;2024-01-30T09:54:40;8.60;99.90
15241;DHT22;7723;52.170;9.978;2024-01-30T09:57:08;8.60;29.60
15241;DHT22;7723;52.170;9.978;2024-01-30T09:59:35;8.70;99.90
15241;DHT22;7723;52.170;9.978;2024-01-30T10:02:02;8.80;92.80
15241;DHT22;7723;52.170;9.978;2024-01-30T10:04:31;8.80;1.00
15241;DHT22;7723;52.170;9.978;2024-01-30T10:07:01;8.70;1.00
15241;DHT22;7723;52.170;9.978;2024-01-30T10:09:32;8.80;1.00
15241;DHT22;7723;52.170;9.978;2024-01-30T10:12:00;8.80;99.90
15241;DHT22;7723;52.170;9.978;2024-01-30T10:14:29;8.90;99.90
15241;DHT22;7723;52.170;9.978;2024-01-30T10:16:57;9.00;45.00
15241;DHT22;7723;52.170;9.978;2024-01-30T10:19:24;9.00;1.00
15241;DHT22;7723;52.170;9.978;2024-01-30T10:21:54;9.00;1.00
15241;DHT22;7723;52.170;9.978;2024-01-30T10:24:24;9.00;1.00
15241;DHT22;7723;52.170;9.978;2024-01-30T10:26:51;8.90;1.00
15241;DHT22;7723;52.170;9.978;2024-01-30T10:29:18;8.90;1.00
15241;DHT22;7723;52.170;9.978;2024-01-30T10:31:45;9.00;1.00
15241;DHT22;7723;52.170;9.978;2024-01-30T10:34:13;9.00;1.00
15241;DHT22;7723;52.170;9.978;2024-01-30T10:36:41;9.00;1.00
15241;DHT22;7723;52.170;9.978;2024-01-30T10:39:11;9.20;1.00
15241;DHT22;7723;52.170;9.978;2024-01-30T10:41:43;9.20;99.90
15241;DHT22;7723;52.170;9.978;2024-01-30T10:44:11;9.10;1.00
15241;DHT22;7723;52.170;9.978;2024-01-30T10:46:39;9.10;1.00
15241;DHT22;7723;52.170;9.978;2024-01-30T10:49:08;9.20;1.00
15241;DHT22;7723;52.170;9.978;2024-01-30T10:51:37;9.30;1.00
15241;DHT22;7723;52.170;9.978;2024-01-30T10:54:05;9.30;99.90
15241;DHT22;7723;52.170;9.978;2024-01-30T10:56:35;9.40;99.90
15241;DHT22;7723;52.170;9.978;2024-01-30T10:59:02;9.30;99.90
15241;DHT22;7723;52.170;9.978;2024-01-30T11:01:30;9.40;99.90
15241;DHT22;7723;52.170;9.978;2024-01-30T11:03:57;9.50;99.90
15241;DHT22;7723;52.170;9.978;2024-01-30T11:06:25;9.50;99.90
15241;DHT22;7723;52.170;9.978;2024-01-30T11:09:01;9.50;92.70
15241;DHT22;7723;52.170;9.978;2024-01-30T11:11:50;9.60;99.90
15241;DHT22;7723;52.170;9.978;2024-01-30T11:14:23;9.60;99.90
15241;DHT22;7723;52.170;9.978;2024-01-30T11:16:50;9.60;99.90
15241;DHT22;7723;52.170;9.978;2024-01-30T11:19:22;9.50;99.90
15241;DHT22;7723;52.170;9.978;2024-01-30T11:21:50;9.50;99.90
15241;DHT22;7723;52.170;9.978;2024-01-30T11:24:19;9.40;99.90
15241;DHT22;7723;52.170;9.978;2024-01-30T11:26:49;9.50;99.90
15241;DHT22;7723;52.170;9.978;2024-01-30T11:29:17;9.50;99.90
15241;DHT22;7723;52.170;9.978;2024-01-30T11:31:54;9.50;95.30
15241;DHT22;7723;52.170;9.978;2024-01-30T11:34:22;9.60;99.90
15241;DHT22;7723;52.170;9.978;2024-01-30T11:36:53;9.60;1.00
15241;DHT22;7723;52.170;9.978;2024-01-30T11:39:25;9.60;99.90
15241;DHT22;7723;52.170;9.978;2024-01-30T11:41:54;9.60;99.90
15241;DHT22;7723;52.170;9.978;2024-01-30T11:44:22;9.70;99.90
15241;DHT22;7723;52.170;9.978;2024-01-30T11:46:51;9.70;99.90
15241;DHT22;7723;52.170;9.978;2024-01-30T11:49:18;9.80;57.20
15241;DHT22;7723;52.170;9.978;2024-01-30T11:51:46;9.70;1.00
15241;DHT22;7723;52.170;9.978;2024-01-30T11:54:14;9.80;1.00
15241;DHT22;7723;52.170;9.978;2024-01-30T11:56:42;9.80;1.00
15241;DHT22;7723;52.170;9.978;2024-01-30T11:59:11;9.70;1.00
15241;DHT22;7723;52.170;9.978;2024-01-30T12:01:38;9.80;1.00
15241;DHT22;7723;52.170;9.978;2024-01-30T12:04:05;9.80;1.00
15241;DHT22;7723;52.170;9.978;2024-01-30T12:06:34;9.90;1.00
15241;DHT22;7723;52.170;9.978;2024-01-30T12:09:03;9.80;1.00
15241;DHT22;7723;52.170;9.978;2024-01-30T12:11:31;9.90;1.00
15241;DHT22;7723;52.170;9.978;2024-01-30T12:13:59;9.90;1.00
15241;DHT22;7723;52.170;9.978;2024-01-30T12:16:27;9.80;1.00
15241;DHT22;7723;52.170;9.978;2024-01-30T12:19:00;9.70;1.00
15241;DHT22;7723;52.170;9.978;2024-01-30T12:21:28;9.80;1.00
15241;DHT22;7723;52.170;9.978;2024-01-30T12:23:56;9.90;5.00
15241;DHT22;7723;52.170;9.978;2024-01-30T12:26:23;9.90;1.00
15241;DHT22;7723;52.170;9.978;2024-01-30T12:28:54;10.00;1.00
15241;DHT22;7723;52.170;9.978;2024-01-30T12:31:27;10.10;1.00
15241;DHT22;7723;52.170;9.978;2024-01-30T12:33:54;10.20;1.00
15241;DHT22;7723;52.170;9.978;2024-01-30T12:36:22;10.30;99.90
15241;DHT22;7723;52.170;9.978;2024-01-30T12:38:50;10.50;99.90
15241;DHT22;7723;52.170;9.978;2024-01-30T12:41:17;10.50;99.90
15241;DHT22;7723;52.170;9.978;2024-01-30T12:43:45;10.50;99.90
15241;DHT22;7723;52.170;9.978;2024-01-30T12:46:13;10.50;1.00
15241;DHT22;7723;52.170;9.978;2024-01-30T12:48:41;10.50;93.20
15241;DHT22;7723;52.170;9.978;2024-01-30T12:51:09;10.50;99.90
15241;DHT22;7723;52.170;9.978;2024-01-30T12:53:36;10.40;1.00
15241;DHT22;7723;52.170;9.978;2024-01-30T12:56:03;10.40;99.90
15241;DHT22;7723;52.170;9.978;2024-01-30T12:58:30;10.50;99.90
15241;DHT22;7723;52.170;9.978;2024-01-30T13:00:58;10.40;99.90
15241;DHT22;7723;52.170;9.978;2024-01-30T13:03:25;10.40;99.90
15241;DHT22;7723;52.170;9.978;2024-01-30T13:05:53;10.40;99.90
15241;DHT22;7723;52.170;9.978;2024-01-30T13:08:21;10.40;99.90
15241;DHT22;7723;52.170;9.978;2024-01-30T13:10:48;10.40;99.90
15241;DHT22;7723;52.170;9.978;2024-01-30T13:13:15;10.50;1.00
15241;DHT22;7723;52.170;9.978;2024-01-30T13:15:42;10.60;99.90
15241;DHT22;7723;52.170;9.978;2024-01-30T13:18:09;10.60;99.90
15241;DHT22;7723;52.170;9.978;2024-01-30T13:20:37;10.60;99.80
15241;DHT22;7723;52.170;9.978;2024-01-30T13:23:05;10.60;99.90
15241;DHT22;7723;52.170;9.978;2024-01-30T13:25:32;10.60;99.90
15241;DHT22;7723;52.170;9.978;2024-01-30T13:27:59;10.60;99.90
15241;DHT22;7723;52.170;9.978;2024-01-30T13:30:27;10.60;99.90
15241;DHT22;7723;52.170;9.978;2024-01-30T13:32:54;10.60;1.00
15241;DHT22;7723;52.170;9.978;2024-01-30T13:35:21;10.60;99.30
15241;DHT22;7723;52.170;9.978;2024-01-30T13:37:48;10.60;99.90
15241;DHT22;7723;52.170;9.978;2024-01-30T13:40:17;10.60;99.90
15241;DHT22;7723;52.170;9.978;2024-01-30T13:42:44;10.50;1.00
15241;DHT22;7723;52.170;9.978;2024-01-30T13:45:11;10.50;1.00
15241;DHT22;7723;52.170;9.978;2024-01-30T13:47:38;10.50;99.90
15241;DHT22;7723;52.170;9.978;2024-01-30T13:50:06;10.40;99.90
15241;DHT22;7723;52.170;9.978;2024-01-30T13:52:33;10.40;1.00
15241;DHT22;7723;52.170;9.978;2024-01-30T13:55:00;10.30;1.00
15241;DHT22;7723;52.170;9.978;2024-01-30T13:57:29;10.30;1.00
15241;DHT22;7723;52.170;9.978;2024-01-30T13:59:58;10.30;91.80
15241;DHT22;7723;52.170;9.978;2024-01-30T14:02:26;10.30;99.90
15241;DHT22;7723;52.170;9.978;2024-01-30T14:04:53;10.30;99.90
15241;DHT22;7723;52.170;9.978;2024-01-30T14:07:20;10.40;99.90
15241;DHT22;7723;52.170;9.978;2024-01-30T14:09:48;10.40;99.90
15241;DHT22;7723;52.170;9.978;2024-01-30T14:12:15;10.40;99.90
15241;DHT22;7723;52.170;9.978;2024-01-30T14:14:43;10.50;99.90
15241;DHT22;7723;52.170;9.978;2024-01-30T14:17:10;10.50;99.90
15241;DHT22;7723;52.170;9.978;2024-01-30T14:19:37;10.60;99.90
15241;DHT22;7723;52.170;9.978;2024-01-30T14:22:05;10.60;99.90
15241;DHT22;7723;52.170;9.978;2024-01-30T14:24:32;10.60;99.90
15241;DHT22;7723;52.170;9.978;2024-01-30T14:26:59;10.50;40.40
15241;DHT22;7723;52.170;9.978;2024-01-30T14:29:26;10.40;99.90
15241;DHT22;7723;52.170;9.978;2024-01-30T14:31:55;10.40;99.90
15241;DHT22;7723;52.170;9.978;2024-01-30T14:34:22;10.20;99.90
15241;DHT22;7723;52.170;9.978;2024-01-30T14:36:49;10.10;99.90
15241;DHT22;7723;52.170;9.978;2024-01-30T14:39:16;10.10;99.90
15241;DHT22;7723;52.170;9.978;2024-01-30T14:41:44;10.00;1.00
15241;DHT22;7723;52.170;9.978;2024-01-30T14:44:11;9.90;1.00
15241;DHT22;7723;52.170;9.978;2024-01-30T14:46:39;9.90;1.00
15241;DHT22;7723;52.170;9.978;2024-01-30T14:49:08;9.80;3.20
15241;DHT22;7723;52.170;9.978;2024-01-30T14:51:35;9.80;27.00
15241;DHT22;7723;52.170;9.978;2024-01-30T14:54:02;9.70;99.90
15241;DHT22;7723;52.170;9.978;2024-01-30T14:56:29;9.70;99.90
15241;DHT22;7723;52.170;9.978;2024-01-30T14:58:57;9.70;99.90
15241;DHT22;7723;52.170;9.978;2024-01-30T15:01:24;9.70;99.90
15241;DHT22;7723;52.170;9.978;2024-01-30T15:03:50;9.70;1.00
15241;DHT22;7723;52.170;9.978;2024-01-30T15:06:19;9.70;1.00
15241;DHT22;7723;52.170;9.978;2024-01-30T15:08:48;9.70;1.00
15241;DHT22;7723;52.170;9.978;2024-01-30T15:11:15;9.70;1.00
15241;DHT22;7723;52.170;9.978;2024-01-30T15:13:42;9.70;1.00
15241;DHT22;7723;52.170;9.978;2024-01-30T15:16:09;9.70;1.00
15241;DHT22;7723;52.170;9.978;2024-01-30T15:18:37;9.60;1.00
15241;DHT22;7723;52.170;9.978;2024-01-30T15:21:04;9.60;1.00
15241;DHT22;7723;52.170;9.978;2024-01-30T15:23:33;9.60;1.00
15241;DHT22;7723;52.170;9.978;2024-01-30T15:26:00;9.60;1.00
15241;DHT22;7723;52.170;9.978;2024-01-30T15:28:35;9.60;1.00
15241;DHT22;7723;52.170;9.978;2024-01-30T15:31:03;9.60;1.00
15241;DHT22;7723;52.170;9.978;2024-01-30T15:33:31;9.70;1.00
15241;DHT22;7723;52.170;9.978;2024-01-30T15:35:58;9.60;1.00
15241;DHT22;7723;52.170;9.978;2024-01-30T15:38:25;9.70;1.00
15241;DHT22;7723;52.170;9.978;2024-01-30T15:40:56;9.70;1.00
15241;DHT22;7723;52.170;9.978;2024-01-30T15:43:23;9.70;1.00
15241;DHT22;7723;52.170;9.978;2024-01-30T15:45:50;9.70;1.00
15241;DHT22;7723;52.170;9.978;2024-01-30T15:48:17;9.70;1.00
15241;DHT22;7723;52.170;9.978;2024-01-30T15:50:45;9.70;1.00
15241;DHT22;7723;52.170;9.978;2024-01-30T15:53:12;9.70;1.00
15241;DHT22;7723;52.170;9.978;2024-01-30T15:55:39;9.70;1.00
15241;DHT22;7723;52.170;9.978;2024-01-30T15:58:08;9.70;1.00
15241;DHT22;7723;52.170;9.978;2024-01-30T16:00:35;9.70;1.00
15241;DHT22;7723;52.170;9.978;2024-01-30T16:03:02;9.70;1.00
15241;DHT22;7723;52.170;9.978;2024-01-30T16:05:30;9.70;1.00